Time;durP1;ratioP1;P1;durP2;ratioP2;P2;SDS_P1;SDS_P2;PMS_P1;PMS_P2;Temp;Humidity;BMP_temperature;BMP_pressure;BME280_temperature;BME280_humidity;BME280_pressure;Samples;Min_cycle;Max_cycle;Signal;HPM_P1;HPM_P2
2020/12/31 00:01:59;;;;;;;12.65;6.20;;;2.50;96.20;;;;;;5068891;28;20419;-67
2020/12/31 00:04:25;;;;;;;10.67;6.20;;;2.50;96.10;;;;;;5072106;28;20415;-66
2020/12/31 00:06:54;;;;;;;10.48;6.18;;;2.50;96.20;;;;;;5071778;28;20442;-67
2020/12/31 00:09:20;;;;;;;12.43;6.50;;;2.70;95.80;;;;;;5068464;28;20450;-67
2020/12/31 00:11:46;;;;;;;10.73;6.47;;;2.70;95.80;;;;;;5071752;28;20450;-67
2020/12/31 00:14:13;;;;;;;11.43;6.38;;;2.60;96.00;;;;;;5068211;28;20419;-67
2020/12/31 00:16:39;;;;;;;10.63;6.38;;;2.60;96.20;;;;;;5071633;28;20847;-67
2020/12/31 00:19:06;;;;;;;11.80;6.50;;;2.50;96.10;;;;;;5078597;28;20427;-67
2020/12/31 00:21:32;;;;;;;10.40;5.88;;;2.50;96.10;;;;;;5091733;28;20409;-67
2020/12/31 00:24:01;;;;;;;12.95;6.18;;;2.50;96.20;;;;;;5080597;28;20427;-67
2020/12/31 00:26:28;;;;;;;11.68;6.03;;;2.50;96.10;;;;;;5071358;28;20974;-67
2020/12/31 00:28:54;;;;;;;10.50;6.70;;;2.50;96.10;;;;;;5068053;28;20886;-67
2020/12/31 00:31:20;;;;;;;11.85;6.57;;;2.50;96.20;;;;;;5071120;28;20404;-67
2020/12/31 00:33:47;;;;;;;12.52;6.75;;;2.50;96.30;;;;;;5068360;28;20457;-67
2020/12/31 00:36:14;;;;;;;11.30;7.00;;;2.50;96.30;;;;;;5071705;28;20404;-67
2020/12/31 00:38:41;;;;;;;13.10;7.15;;;2.50;96.40;;;;;;5071797;28;20403;-67
2020/12/31 00:41:08;;;;;;;9.82;6.88;;;2.40;96.40;;;;;;5068185;28;20439;-67
2020/12/31 00:43:34;;;;;;;10.77;6.53;;;2.40;96.50;;;;;;5071283;28;20415;-67
2020/12/31 00:46:01;;;;;;;12.18;7.05;;;2.50;96.30;;;;;;5067034;28;20903;-67
2020/12/31 00:48:27;;;;;;;13.30;7.10;;;2.50;96.40;;;;;;5071040;28;20465;-67
2020/12/31 00:50:53;;;;;;;10.43;6.95;;;2.50;96.40;;;;;;5068591;28;20465;-67
2020/12/31 00:53:22;;;;;;;11.23;7.03;;;2.50;96.50;;;;;;5070073;28;20441;-67
2020/12/31 00:55:48;;;;;;;12.55;7.22;;;2.50;96.50;;;;;;5067683;28;20432;-67
2020/12/31 00:58:15;;;;;;;15.27;8.82;;;2.50;96.40;;;;;;5071083;28;20431;-67
2020/12/31 01:00:41;;;;;;;14.68;8.93;;;2.50;96.50;;;;;;5067547;28;20504;-67
2020/12/31 01:03:08;;;;;;;16.73;8.90;;;2.50;96.60;;;;;;5070085;28;20400;-67
2020/12/31 01:05:36;;;;;;;12.48;7.63;;;2.50;96.60;;;;;;5068050;28;20431;-67
2020/12/31 01:08:03;;;;;;;11.65;7.57;;;2.40;96.50;;;;;;5070114;28;20408;-67
2020/12/31 01:10:29;;;;;;;13.05;8.00;;;2.40;96.40;;;;;;5070829;28;20396;-67
2020/12/31 01:12:56;;;;;;;13.67;8.10;;;2.40;96.50;;;;;;5067495;28;20412;-67
2020/12/31 01:15:25;;;;;;;13.23;8.00;;;2.40;96.50;;;;;;5070859;28;20495;-67
2020/12/31 01:17:53;;;;;;;12.27;8.02;;;2.30;96.40;;;;;;5080950;28;20427;-67
2020/12/31 01:20:20;;;;;;;13.25;7.97;;;2.30;96.50;;;;;;5091203;28;20425;-67
2020/12/31 01:22:46;;;;;;;12.38;8.25;;;2.30;96.60;;;;;;5074942;28;20535;-67
2020/12/31 01:25:13;;;;;;;11.30;7.50;;;2.30;96.80;;;;;;5070499;28;20819;-67
2020/12/31 01:27:42;;;;;;;13.20;7.33;;;2.30;96.80;;;;;;5067019;28;20992;-67
2020/12/31 01:30:09;;;;;;;14.57;7.68;;;2.50;96.70;;;;;;5070375;28;20415;-67
2020/12/31 01:32:37;;;;;;;14.95;8.43;;;2.50;96.10;;;;;;5066740;28;20415;-67
2020/12/31 01:35:04;;;;;;;13.00;7.88;;;2.50;96.10;;;;;;5069355;28;20411;-67
2020/12/31 01:37:30;;;;;;;14.48;7.57;;;2.40;96.10;;;;;;5067069;28;22329;-67
2020/12/31 01:39:57;;;;;;;16.33;8.97;;;2.40;96.30;;;;;;5070668;28;20438;-67
2020/12/31 01:42:23;;;;;;;17.20;9.02;;;2.40;96.40;;;;;;5070340;28;20416;-67
2020/12/31 01:44:49;;;;;;;12.95;7.72;;;2.30;96.30;;;;;;5066129;28;20404;-67
2020/12/31 01:47:17;;;;;;;12.38;7.07;;;2.40;96.30;;;;;;5069092;28;20818;-67
2020/12/31 01:49:45;;;;;;;9.93;6.88;;;2.40;96.00;;;;;;5066905;28;20729;-67
2020/12/31 01:52:15;;;;;;;12.23;6.38;;;2.60;96.00;;;;;;5070439;28;20411;-67
2020/12/31 01:54:50;;;;;;;9.57;6.93;;;2.60;95.60;;;;;;5067083;28;20439;-66
2020/12/31 01:57:16;;;;;;;12.50;7.38;;;2.40;95.60;;;;;;5070040;28;20870;-67
2020/12/31 01:59:43;;;;;;;11.00;6.32;;;2.30;95.90;;;;;;5066629;28;20411;-67
2020/12/31 02:02:09;;;;;;;10.35;6.25;;;2.30;96.10;;;;;;5070358;28;20396;-67
2020/12/31 02:04:37;;;;;;;11.60;7.10;;;2.20;95.80;;;;;;5066763;28;20447;-67
2020/12/31 02:07:05;;;;;;;11.20;6.60;;;2.10;96.10;;;;;;5069922;28;20455;-69
2020/12/31 02:09:34;;;;;;;9.90;6.13;;;2.10;96.10;;;;;;5066623;28;20439;-67
2020/12/31 02:12:04;;;;;;;13.93;6.60;;;2.20;96.30;;;;;;5070209;28;20403;-67
2020/12/31 02:14:34;;;;;;;12.68;6.10;;;2.10;96.30;;;;;;5067586;28;20427;-67
2020/12/31 02:17:02;;;;;;;9.25;5.75;;;2.20;96.10;;;;;;5074418;28;20411;-67
2020/12/31 02:19:29;;;;;;;10.90;5.70;;;2.10;96.10;;;;;;5074219;28;20431;-67
2020/12/31 02:21:55;;;;;;;10.82;6.45;;;2.00;96.30;;;;;;5070497;28;20404;-67
2020/12/31 02:24:26;;;;;;;9.40;6.65;;;2.00;96.50;;;;;;5073056;28;20714;-67
2020/12/31 02:26:53;;;;;;;9.85;6.43;;;2.00;96.60;;;;;;5070839;28;20801;-67
2020/12/31 02:29:19;;;;;;;9.20;6.70;;;1.90;96.70;;;;;;5072546;28;20419;-67
2020/12/31 02:31:47;;;;;;;10.10;6.35;;;2.00;96.90;;;;;;5071190;28;20435;-66
2020/12/31 02:34:13;;;;;;;11.00;6.72;;;2.00;96.60;;;;;;5073060;28;20465;-67
2020/12/31 02:36:40;;;;;;;9.67;6.90;;;1.90;96.70;;;;;;5070891;28;20462;-67
2020/12/31 02:39:12;;;;;;;10.70;6.40;;;2.00;97.00;;;;;;5073518;28;20407;-67
2020/12/31 02:41:41;;;;;;;9.50;6.20;;;2.10;96.60;;;;;;5069433;28;20858;-67
2020/12/31 02:44:08;;;;;;;9.98;6.25;;;2.00;96.40;;;;;;5072481;28;20438;-67
2020/12/31 02:46:35;;;;;;;9.57;6.50;;;2.00;96.30;;;;;;5070754;28;20798;-67
2020/12/31 02:49:01;;;;;;;9.35;5.97;;;2.00;96.40;;;;;;5072534;28;20706;-67
2020/12/31 02:51:28;;;;;;;10.63;5.63;;;2.10;96.30;;;;;;5068967;28;20399;-67
2020/12/31 02:53:55;;;;;;;12.00;6.00;;;2.10;96.30;;;;;;5072664;28;20392;-67
2020/12/31 02:56:23;;;;;;;11.73;6.43;;;2.10;96.50;;;;;;5073549;28;20512;-67
2020/12/31 02:58:50;;;;;;;11.40;5.90;;;2.00;96.50;;;;;;5084859;28;20414;-67
2020/12/31 03:01:18;;;;;;;11.83;5.43;;;2.10;96.60;;;;;;5073207;28;20447;-67
2020/12/31 03:03:47;;;;;;;9.15;5.65;;;2.00;96.60;;;;;;5069925;28;20443;-67
2020/12/31 03:06:14;;;;;;;8.95;5.40;;;2.10;96.40;;;;;;5072479;28;20503;-67
2020/12/31 03:08:41;;;;;;;8.45;5.40;;;2.10;96.30;;;;;;5068813;28;20428;-67
2020/12/31 03:11:12;;;;;;;9.05;5.35;;;2.10;96.30;;;;;;5073092;28;20434;-67
2020/12/31 03:13:39;;;;;;;9.13;4.80;;;2.30;96.50;;;;;;5073369;28;20419;-67
2020/12/31 03:16:05;;;;;;;8.17;5.07;;;2.40;95.90;;;;;;5072547;28;20469;-67
2020/12/31 03:18:32;;;;;;;9.18;4.85;;;2.40;95.70;;;;;;5073462;28;20587;-67
2020/12/31 03:21:01;;;;;;;9.43;5.25;;;2.40;95.50;;;;;;5073425;28;20412;-67
2020/12/31 03:23:27;;;;;;;8.80;5.15;;;2.20;95.70;;;;;;5072853;28;20435;-67
2020/12/31 03:25:54;;;;;;;9.00;5.55;;;2.20;95.90;;;;;;5070801;28;20937;-67
2020/12/31 03:28:20;;;;;;;7.95;5.05;;;2.10;96.10;;;;;;5071703;28;20431;-67
2020/12/31 03:30:47;;;;;;;8.57;4.82;;;2.10;96.20;;;;;;5072244;28;20431;-67
2020/12/31 03:33:14;;;;;;;9.98;5.53;;;2.00;96.10;;;;;;5073173;28;20435;-67
2020/12/31 03:35:46;;;;;;;8.07;5.32;;;1.90;96.20;;;;;;5071995;28;20399;-67
2020/12/31 03:38:15;;;;;;;9.67;5.87;;;1.90;96.30;;;;;;5072988;28;20407;-67
2020/12/31 03:40:43;;;;;;;8.98;5.93;;;1.80;96.40;;;;;;5071930;28;20465;-67
2020/12/31 03:43:10;;;;;;;8.95;5.30;;;1.70;96.50;;;;;;5071961;28;20424;-67
2020/12/31 03:45:37;;;;;;;9.77;5.68;;;1.70;96.60;;;;;;5071486;28;20428;-67
2020/12/31 03:48:04;;;;;;;14.93;7.18;;;1.70;96.70;;;;;;5071804;28;20415;-67
2020/12/31 03:50:32;;;;;;;11.18;6.70;;;1.80;96.80;;;;;;5071609;28;20728;-67
2020/12/31 03:52:58;;;;;;;10.13;7.10;;;1.70;96.70;;;;;;5072300;28;20403;-67
2020/12/31 03:55:25;;;;;;;11.67;6.97;;;1.80;96.70;;;;;;5072974;28;20404;-67
2020/12/31 03:57:51;;;;;;;13.30;7.90;;;1.70;96.70;;;;;;5071642;28;20400;-67
2020/12/31 04:00:18;;;;;;;13.27;7.40;;;1.70;96.70;;;;;;5072231;28;20435;-67
2020/12/31 04:02:44;;;;;;;12.82;7.70;;;1.70;96.70;;;;;;5071588;28;20396;-67
2020/12/31 04:05:11;;;;;;;15.68;8.07;;;1.70;96.90;;;;;;5072432;28;20400;-67
2020/12/31 04:07:37;;;;;;;13.77;7.80;;;1.70;97.00;;;;;;5072431;28;20403;-67
2020/12/31 04:10:04;;;;;;;11.90;7.47;;;1.70;96.90;;;;;;5071401;28;20403;-67
2020/12/31 04:12:31;;;;;;;12.23;7.30;;;1.70;96.90;;;;;;5072177;28;20494;-67
2020/12/31 04:14:59;;;;;;;9.93;6.47;;;1.70;96.80;;;;;;5072057;28;20794;-67
2020/12/31 04:17:29;;;;;;;11.20;6.70;;;1.60;96.80;;;;;;5072136;28;20435;-67
2020/12/31 04:19:55;;;;;;;11.03;7.27;;;1.60;96.70;;;;;;5070972;28;20854;-67
2020/12/31 04:22:22;;;;;;;12.23;7.22;;;1.50;96.90;;;;;;5071955;28;20794;-67
2020/12/31 04:24:50;;;;;;;11.70;7.22;;;1.50;96.90;;;;;;5071128;28;20441;-67
2020/12/31 04:27:16;;;;;;;9.85;6.65;;;1.50;96.90;;;;;;5071368;28;20933;-66
2020/12/31 04:29:45;;;;;;;11.43;6.37;;;1.40;96.80;;;;;;5071979;28;20474;-67
2020/12/31 04:32:11;;;;;;;9.25;6.15;;;1.40;96.80;;;;;;5071909;28;20400;-67
2020/12/31 04:34:38;;;;;;;8.93;6.10;;;1.30;96.70;;;;;;5072040;28;20473;-67
2020/12/31 04:37:04;;;;;;;7.82;5.82;;;1.30;96.70;;;;;;5070505;28;20424;-67
2020/12/31 04:39:31;;;;;;;11.32;6.57;;;1.30;96.80;;;;;;5071802;28;20431;-67
2020/12/31 04:41:58;;;;;;;9.88;6.38;;;1.20;96.80;;;;;;5071741;28;20498;-67
2020/12/31 04:44:25;;;;;;;8.15;5.40;;;1.20;96.80;;;;;;5070737;28;20412;-67
2020/12/31 04:46:57;;;;;;;9.88;5.63;;;1.10;96.70;;;;;;5071184;28;20423;-67
2020/12/31 04:49:29;;;;;;;10.80;5.63;;;1.10;96.50;;;;;;5071186;28;20411;-67
2020/12/31 04:51:55;;;;;;;12.02;6.30;;;1.10;96.40;;;;;;5071445;28;20706;-67
2020/12/31 04:54:22;;;;;;;10.63;5.82;;;1.00;96.40;;;;;;5071100;28;20431;-67
2020/12/31 04:56:50;;;;;;;10.07;6.00;;;1.00;96.40;;;;;;5070398;28;20461;-67
2020/12/31 04:59:16;;;;;;;8.68;5.97;;;0.90;96.50;;;;;;5071424;28;20407;-67
2020/12/31 05:01:48;;;;;;;10.15;6.47;;;0.90;96.60;;;;;;5071538;28;20404;-67
2020/12/31 05:04:14;;;;;;;10.35;6.50;;;0.90;96.80;;;;;;5071053;28;20856;-67
2020/12/31 05:06:44;;;;;;;11.43;6.78;;;1.00;97.20;;;;;;5071251;28;20454;-67
2020/12/31 05:09:15;;;;;;;11.88;6.93;;;1.00;97.00;;;;;;5070765;28;20407;-67
2020/12/31 05:11:53;;;;;;;9.77;6.10;;;1.00;97.00;;;;;;5069852;28;20820;-67
2020/12/31 05:14:34;;;;;;;12.38;6.43;;;1.00;96.70;;;;;;5071150;28;20424;-67
2020/12/31 05:17:17;;;;;;;14.57;6.67;;;0.90;96.80;;;;;;5070965;28;20396;-67
2020/12/31 05:19:45;;;;;;;9.32;5.75;;;0.80;96.90;;;;;;5070905;28;20476;-67
2020/12/31 05:22:16;;;;;;;8.38;5.95;;;0.80;96.80;;;;;;5070744;28;20828;-67
2020/12/31 05:24:50;;;;;;;8.80;5.75;;;0.80;96.80;;;;;;5070030;28;20842;-67
2020/12/31 05:27:28;;;;;;;10.85;6.38;;;0.80;96.70;;;;;;5053712;28;20427;-67
2020/12/31 05:30:09;;;;;;;10.20;6.20;;;0.80;96.70;;;;;;5069731;28;20469;-67
2020/12/31 05:32:40;;;;;;;15.13;8.27;;;0.80;96.70;;;;;;5070874;28;20427;-67
2020/12/31 05:35:27;;;;;;;17.02;8.90;;;0.80;96.70;;;;;;5070483;28;20844;-67
2020/12/31 05:37:53;;;;;;;17.83;8.13;;;0.80;96.80;;;;;;5069698;28;20400;-67
2020/12/31 05:40:22;;;;;;;13.90;7.95;;;0.80;96.80;;;;;;5069555;28;20778;-67
2020/12/31 05:42:50;;;;;;;13.82;8.43;;;0.70;96.90;;;;;;5070782;28;20460;-67
2020/12/31 05:45:18;;;;;;;18.75;9.75;;;0.70;97.00;;;;;;5069585;28;20396;-67
2020/12/31 05:47:50;;;;;;;15.57;9.00;;;0.80;97.30;;;;;;5070677;28;20404;-67
2020/12/31 05:50:29;;;;;;;17.10;9.00;;;0.90;97.10;;;;;;5068782;28;20399;-67
2020/12/31 05:52:56;;;;;;;14.25;8.23;;;0.90;97.10;;;;;;5069622;28;20404;-67
2020/12/31 05:55:25;;;;;;;12.55;8.25;;;0.80;97.00;;;;;;5069462;28;20836;-67
2020/12/31 05:57:55;;;;;;;15.98;7.97;;;0.80;97.00;;;;;;5070239;28;20456;-67
2020/12/31 06:00:26;;;;;;;13.35;8.15;;;0.80;97.00;;;;;;5070244;28;20425;-67
2020/12/31 06:03:03;;;;;;;12.30;8.07;;;0.80;97.00;;;;;;5069627;28;20400;-67
2020/12/31 06:05:29;;;;;;;13.75;8.48;;;0.70;97.20;;;;;;5070615;28;20763;-67
2020/12/31 06:07:59;;;;;;;12.43;7.72;;;0.70;97.10;;;;;;5070601;28;20893;-66
2020/12/31 06:10:32;;;;;;;13.00;8.60;;;0.70;97.10;;;;;;5068982;28;20856;-67
2020/12/31 06:13:04;;;;;;;19.35;9.55;;;0.60;97.10;;;;;;5069290;28;20415;-67
2020/12/31 06:15:32;;;;;;;36.10;19.40;;;0.50;97.20;;;;;;5070086;28;20392;-67
2020/12/31 06:18:03;;;;;;;31.05;17.20;;;0.50;97.20;;;;;;5070279;28;20469;-67
2020/12/31 06:20:32;;;;;;;17.63;11.07;;;0.40;97.20;;;;;;5070321;28;20824;-67
2020/12/31 06:23:07;;;;;;;20.83;11.45;;;0.40;97.30;;;;;;5069292;28;20435;-67
2020/12/31 06:25:47;;;;;;;20.02;9.85;;;0.30;97.40;;;;;;5068997;28;20391;-67
2020/12/31 06:28:18;;;;;;;15.47;10.37;;;0.30;97.40;;;;;;5069930;28;20968;-67
2020/12/31 06:30:55;;;;;;;20.02;10.60;;;0.20;97.20;;;;;;5070298;28;20411;-67
2020/12/31 06:33:39;;;;;;;17.10;10.10;;;0.20;97.20;;;;;;5070496;28;20411;-67
2020/12/31 06:36:05;;;;;;;16.42;9.75;;;0.10;97.10;;;;;;5069906;28;20840;-67
2020/12/31 06:38:33;;;;;;;19.50;9.83;;;0.00;97.10;;;;;;5070072;28;20428;-66
2020/12/31 06:41:00;;;;;;;16.38;9.60;;;0.00;97.00;;;;;;5070453;28;20497;-66
2020/12/31 06:43:39;;;;;;;17.55;9.65;;;0.00;96.90;;;;;;5069191;28;20569;-66
2020/12/31 06:46:20;;;;;;;18.33;10.25;;;-0.10;97.10;;;;;;5069391;28;20812;-66
2020/12/31 06:48:51;;;;;;;15.43;9.68;;;0.00;97.40;;;;;;5069859;28;20408;-66
2020/12/31 06:51:25;;;;;;;15.00;9.32;;;0.00;97.40;;;;;;5069786;28;20451;-66
2020/12/31 06:53:52;;;;;;;20.05;9.52;;;0.00;97.30;;;;;;5069454;28;20436;-66
2020/12/31 06:56:42;;;;;;;23.60;10.48;;;-0.10;97.40;;;;;;5069829;28;20933;-66
2020/12/31 06:59:30;;;;;;;17.00;9.67;;;-0.20;97.40;;;;;;5069599;28;20817;-66
2020/12/31 07:02:24;;;;;;;15.50;9.70;;;-0.20;97.50;;;;;;5073373;28;20694;-66
2020/12/31 07:04:52;;;;;;;18.80;9.38;;;-0.20;97.40;;;;;;5073362;28;20974;-66
2020/12/31 07:07:21;;;;;;;16.48;8.77;;;-0.20;97.40;;;;;;5072479;28;20522;-66
2020/12/31 07:09:55;;;;;;;15.98;9.18;;;-0.30;97.20;;;;;;5073681;28;20457;-66
2020/12/31 07:12:41;;;;;;;15.07;9.27;;;-0.40;97.10;;;;;;5072429;28;20396;-67
2020/12/31 07:15:09;;;;;;;15.30;8.37;;;-0.40;97.20;;;;;;5072963;28;20417;-66
2020/12/31 07:17:46;;;;;;;15.85;9.48;;;-0.40;97.10;;;;;;5073409;28;20873;-66
2020/12/31 07:20:17;;;;;;;16.25;9.05;;;-0.40;97.20;;;;;;5073470;28;20415;-66
2020/12/31 07:22:47;;;;;;;13.00;8.90;;;-0.40;97.30;;;;;;5073422;28;21045;-67
2020/12/31 07:25:15;;;;;;;14.97;8.53;;;-0.50;97.20;;;;;;5072637;28;20415;-68
2020/12/31 07:27:51;;;;;;;13.50;9.30;;;-0.50;97.20;;;;;;5073198;28;20870;-67
2020/12/31 07:30:23;;;;;;;15.60;9.85;;;-0.40;97.10;;;;;;5073093;28;20426;-67
2020/12/31 07:32:56;;;;;;;17.38;9.68;;;-0.40;97.10;;;;;;5072528;28;20769;-66
2020/12/31 07:35:23;;;;;;;18.70;10.23;;;-0.50;97.00;;;;;;5071696;28;20473;-68
2020/12/31 07:38:04;;;;;;;19.05;10.30;;;-0.40;96.90;;;;;;5073239;28;20427;-67
2020/12/31 07:40:42;;;;;;;18.38;11.93;;;-0.40;96.80;;;;;;5072963;28;20411;-67
2020/12/31 07:43:16;;;;;;;19.48;11.55;;;-0.40;97.10;;;;;;5073019;28;20477;-66
2020/12/31 07:45:55;;;;;;;20.13;11.60;;;-0.40;97.10;;;;;;5073063;28;20404;-66
2020/12/31 07:48:22;;;;;;;18.30;11.02;;;-0.40;97.30;;;;;;5071888;28;20843;-66
2020/12/31 07:50:57;;;;;;;17.33;11.48;;;-0.40;97.10;;;;;;5072333;28;20404;-66
2020/12/31 07:53:24;;;;;;;19.90;12.85;;;-0.30;97.10;;;;;;5071922;28;20408;-66
2020/12/31 07:55:52;;;;;;;24.95;15.00;;;-0.30;97.10;;;;;;5072149;28;20432;-66
2020/12/31 07:58:21;;;;;;;32.08;16.05;;;-0.10;97.30;;;;;;5072030;28;20835;-66
2020/12/31 08:01:00;;;;;;;31.85;17.52;;;0.00;97.20;;;;;;5072223;28;20848;-66
2020/12/31 08:03:29;;;;;;;39.05;18.75;;;0.10;97.30;;;;;;5071810;28;20459;-66
2020/12/31 08:06:07;;;;;;;35.83;18.27;;;0.10;97.30;;;;;;5071303;28;20890;-66
2020/12/31 08:08:34;;;;;;;43.50;18.03;;;0.20;97.30;;;;;;5072330;28;20492;-66
2020/12/31 08:11:11;;;;;;;52.17;18.65;;;0.20;97.10;;;;;;5072245;28;20483;-66
2020/12/31 08:13:38;;;;;;;51.03;18.10;;;0.20;97.20;;;;;;5067886;28;20441;-66
2020/12/31 08:16:06;;;;;;;46.88;18.05;;;0.30;97.20;;;;;;5061909;28;20417;-66
2020/12/31 08:18:33;;;;;;;60.72;18.15;;;0.30;97.20;;;;;;5064776;28;20457;-66
2020/12/31 08:21:04;;;;;;;32.67;17.40;;;0.40;97.20;;;;;;5069383;28;20470;-66
2020/12/31 08:23:41;;;;;;;38.23;16.20;;;0.40;97.20;;;;;;5070021;28;20411;-66
2020/12/31 08:26:13;;;;;;;28.92;16.70;;;0.50;97.10;;;;;;5076198;28;20440;-66
2020/12/31 08:28:45;;;;;;;30.08;15.80;;;0.60;97.00;;;;;;5071711;28;20480;-66
2020/12/31 08:31:14;;;;;;;36.45;16.33;;;0.60;96.80;;;;;;5072342;28;20852;-66
2020/12/31 08:33:42;;;;;;;27.75;15.57;;;0.80;96.70;;;;;;5071261;28;20462;-66
2020/12/31 08:36:09;;;;;;;42.85;16.30;;;0.80;96.40;;;;;;5070295;28;20852;-66
2020/12/31 08:38:39;;;;;;;30.07;17.50;;;0.90;96.30;;;;;;5073825;28;20869;-66
2020/12/31 08:41:07;;;;;;;53.88;17.45;;;0.90;96.10;;;;;;5070316;28;20926;-66
2020/12/31 08:43:38;;;;;;;38.55;17.23;;;1.00;96.30;;;;;;5069194;28;20879;-66
2020/12/31 08:46:18;;;;;;;24.63;15.90;;;1.10;96.20;;;;;;5069974;28;20450;-66
2020/12/31 08:48:53;;;;;;;122.95;17.02;;;1.20;96.00;;;;;;5069446;28;20447;-66
2020/12/31 08:51:19;;;;;;;30.15;15.93;;;1.40;95.70;;;;;;5068954;28;20408;-66
2020/12/31 08:53:55;;;;;;;65.20;15.88;;;1.50;95.30;;;;;;5070100;28;20810;-67
2020/12/31 08:56:26;;;;;;;25.05;15.57;;;1.50;95.10;;;;;;5071262;28;21009;-66
2020/12/31 08:59:11;;;;;;;31.05;13.90;;;1.70;95.30;;;;;;5071187;28;20438;-66
2020/12/31 09:01:45;;;;;;;24.52;15.15;;;1.80;94.20;;;;;;5068351;28;21116;-66
2020/12/31 09:04:16;;;;;;;21.80;13.95;;;2.00;94.40;;;;;;5073901;28;20405;-66
2020/12/31 09:06:47;;;;;;;23.13;14.10;;;2.20;94.10;;;;;;5071547;28;20534;-66
2020/12/31 09:09:28;;;;;;;23.38;14.73;;;2.30;93.50;;;;;;5071634;28;20408;-66
2020/12/31 09:12:04;;;;;;;27.40;13.68;;;2.40;93.00;;;;;;5088204;28;20484;-66
2020/12/31 09:14:33;;;;;;;20.70;13.13;;;2.50;92.70;;;;;;5091326;28;20438;-66
2020/12/31 09:16:59;;;;;;;21.92;13.68;;;2.50;92.80;;;;;;5091511;28;20454;-66
2020/12/31 09:19:26;;;;;;;19.92;13.07;;;2.60;92.90;;;;;;5075621;28;20532;-66
2020/12/31 09:21:52;;;;;;;17.23;11.75;;;2.70;92.60;;;;;;5070845;28;20868;-66
2020/12/31 09:24:21;;;;;;;17.02;11.07;;;2.80;92.50;;;;;;5070386;28;20485;-66
2020/12/31 09:26:58;;;;;;;15.93;11.27;;;3.10;92.30;;;;;;5071157;28;20458;-66
2020/12/31 09:29:30;;;;;;;13.35;9.73;;;3.50;91.60;;;;;;5070457;28;20424;-66
2020/12/31 09:31:58;;;;;;;12.82;8.75;;;4.20;90.30;;;;;;5074632;28;20403;-66
2020/12/31 09:34:27;;;;;;;11.50;7.65;;;5.00;86.80;;;;;;5071716;28;20919;-67
2020/12/31 09:37:01;;;;;;;11.27;7.20;;;5.80;83.10;;;;;;5077335;28;20465;-67
2020/12/31 09:39:30;;;;;;;13.45;7.10;;;6.40;80.30;;;;;;5070938;28;20426;-67
2020/12/31 09:41:58;;;;;;;10.07;6.25;;;6.80;77.80;;;;;;5070486;28;20871;-67
2020/12/31 09:44:25;;;;;;;9.63;6.20;;;7.10;76.60;;;;;;5071003;28;20475;-67
2020/12/31 09:46:51;;;;;;;8.93;6.00;;;7.50;74.70;;;;;;5069625;28;20459;-67
2020/12/31 09:49:17;;;;;;;8.35;5.97;;;7.80;74.00;;;;;;5069961;28;20439;-67
2020/12/31 09:51:47;;;;;;;9.27;6.40;;;8.40;72.70;;;;;;5069704;28;20435;-67
2020/12/31 09:54:19;;;;;;;9.55;6.03;;;8.70;70.80;;;;;;5068943;28;20559;-67
2020/12/31 09:56:46;;;;;;;8.97;5.90;;;9.20;69.90;;;;;;5069109;28;20411;-67
2020/12/31 09:59:13;;;;;;;9.20;5.97;;;9.80;67.40;;;;;;5069784;28;20411;-67
2020/12/31 10:01:40;;;;;;;7.10;5.22;;;10.50;64.80;;;;;;5070132;28;20447;-67
2020/12/31 10:04:06;;;;;;;8.40;5.32;;;10.40;65.00;;;;;;5068057;28;20399;-67
2020/12/31 10:06:35;;;;;;;6.45;5.00;;;10.50;64.20;;;;;;5070300;28;20419;-68
2020/12/31 10:09:03;;;;;;;5.68;4.40;;;10.70;63.90;;;;;;5069454;28;20461;-68
2020/12/31 10:11:29;;;;;;;6.35;4.25;;;10.90;62.40;;;;;;5070850;28;20416;-68
2020/12/31 10:13:58;;;;;;;5.93;4.10;;;11.20;61.40;;;;;;5076966;28;20458;-68
2020/12/31 10:16:24;;;;;;;5.30;3.50;;;11.60;60.20;;;;;;5066179;28;20884;-68
2020/12/31 10:18:51;;;;;;;6.72;4.10;;;11.80;58.60;;;;;;5071752;28;20481;-68
2020/12/31 10:21:17;;;;;;;8.15;5.20;;;11.50;60.70;;;;;;5074238;28;20415;-67
2020/12/31 10:23:44;;;;;;;10.75;5.40;;;11.40;59.10;;;;;;5070205;28;20469;-68
2020/12/31 10:26:10;;;;;;;12.45;6.80;;;11.40;59.80;;;;;;5070358;28;20431;-68
2020/12/31 10:28:36;;;;;;;9.95;6.30;;;11.30;60.50;;;;;;5069939;28;20859;-68
2020/12/31 10:31:03;;;;;;;9.88;6.40;;;11.40;60.60;;;;;;5070941;28;20862;-68
2020/12/31 10:33:29;;;;;;;8.90;6.22;;;11.40;60.80;;;;;;5086409;28;20415;-68
2020/12/31 10:35:56;;;;;;;8.27;5.90;;;11.40;61.10;;;;;;5070876;28;20419;-68
2020/12/31 10:38:22;;;;;;;7.88;5.53;;;11.50;59.90;;;;;;5081535;28;20409;-67
2020/12/31 10:40:49;;;;;;;9.05;5.22;;;12.00;58.50;;;;;;5073396;28;20446;-67
2020/12/31 10:43:15;;;;;;;6.90;5.40;;;12.50;57.20;;;;;;5074052;28;20399;-67
2020/12/31 10:45:41;;;;;;;9.18;5.70;;;13.00;55.40;;;;;;5074292;28;20453;-68
2020/12/31 10:48:08;;;;;;;7.13;5.13;;;13.20;54.90;;;;;;5078258;28;20521;-68
2020/12/31 10:50:34;;;;;;;6.47;5.20;;;13.50;53.70;;;;;;5073613;28;20404;-67
2020/12/31 10:53:01;;;;;;;5.97;5.10;;;13.90;52.50;;;;;;5073083;28;20411;-67
2020/12/31 10:55:28;;;;;;;6.50;4.88;;;14.10;52.40;;;;;;5072892;28;20411;-67
2020/12/31 10:57:55;;;;;;;5.63;4.30;;;14.30;51.20;;;;;;5072254;28;20480;-68
2020/12/31 11:00:21;;;;;;;5.30;4.23;;;14.30;50.70;;;;;;5072321;28;20453;-67
2020/12/31 11:02:48;;;;;;;4.72;3.80;;;14.30;50.20;;;;;;5073507;28;20906;-68
2020/12/31 11:05:14;;;;;;;5.80;4.38;;;14.30;49.90;;;;;;5092565;28;20417;-68
2020/12/31 11:07:41;;;;;;;6.93;4.68;;;14.80;49.60;;;;;;5093620;28;20453;-68
2020/12/31 11:10:07;;;;;;;6.47;5.03;;;15.10;49.00;;;;;;5093068;28;20413;-68
2020/12/31 11:12:33;;;;;;;7.07;4.90;;;15.30;48.30;;;;;;5093910;28;20402;-68
2020/12/31 11:15:00;;;;;;;6.45;4.78;;;15.50;47.90;;;;;;5092481;28;20421;-68
2020/12/31 11:17:26;;;;;;;6.03;4.70;;;15.70;47.00;;;;;;5092837;28;20413;-68
2020/12/31 11:19:55;;;;;;;6.55;4.78;;;15.90;46.30;;;;;;5085657;28;20419;-68
2020/12/31 11:22:21;;;;;;;6.25;4.90;;;16.00;45.90;;;;;;5073555;28;20403;-68
2020/12/31 11:24:48;;;;;;;7.53;4.85;;;16.10;46.40;;;;;;5072562;28;20443;-68
2020/12/31 11:27:14;;;;;;;6.27;5.30;;;16.10;45.40;;;;;;5072982;28;20489;-68
2020/12/31 11:29:43;;;;;;;6.10;4.90;;;16.10;45.40;;;;;;5075352;28;20473;-68
2020/12/31 11:32:12;;;;;;;6.43;5.23;;;16.10;45.60;;;;;;5074910;28;20851;-68
2020/12/31 11:34:41;;;;;;;7.18;5.30;;;16.40;45.80;;;;;;5071398;28;20914;-68
2020/12/31 11:37:07;;;;;;;7.28;4.93;;;16.60;45.40;;;;;;5072457;28;20493;-68
2020/12/31 11:39:33;;;;;;;6.10;4.97;;;16.70;45.50;;;;;;5079283;28;20423;-68
2020/12/31 11:42:02;;;;;;;7.30;5.60;;;17.00;45.20;;;;;;5072824;28;20403;-68
2020/12/31 11:44:29;;;;;;;7.00;5.57;;;16.90;44.00;;;;;;5071877;28;20724;-68
2020/12/31 11:46:58;;;;;;;6.07;5.40;;;17.20;43.90;;;;;;5070958;28;20461;-68
2020/12/31 11:49:30;;;;;;;5.72;4.65;;;17.40;43.40;;;;;;5073071;28;20477;-68
2020/12/31 11:52:01;;;;;;;6.97;5.40;;;17.30;42.70;;;;;;5071788;28;20408;-68
2020/12/31 11:54:27;;;;;;;6.47;5.28;;;17.70;42.20;;;;;;5072602;28;20469;-68
2020/12/31 11:56:57;;;;;;;6.93;5.18;;;17.50;42.20;;;;;;5089117;28;20479;-68
2020/12/31 11:59:24;;;;;;;7.27;5.50;;;17.50;41.90;;;;;;5091825;28;20418;-68
2020/12/31 12:01:54;;;;;;;7.93;6.10;;;17.60;41.80;;;;;;5093041;28;20409;-68
2020/12/31 12:04:20;;;;;;;8.00;6.10;;;17.80;41.40;;;;;;5080157;28;20513;-68
2020/12/31 12:06:52;;;;;;;10.13;7.55;;;18.00;41.10;;;;;;5091673;28;20478;-68
2020/12/31 12:09:19;;;;;;;10.45;7.90;;;18.00;40.90;;;;;;5079622;28;20421;-68
2020/12/31 12:11:45;;;;;;;13.73;8.73;;;18.00;40.90;;;;;;5071712;28;20489;-68
2020/12/31 12:14:13;;;;;;;15.05;8.98;;;17.90;41.80;;;;;;5070260;28;20804;-68
2020/12/31 12:16:41;;;;;;;17.00;9.90;;;18.10;41.00;;;;;;5071048;28;20494;-68
2020/12/31 12:19:11;;;;;;;17.48;9.45;;;18.40;41.60;;;;;;5070314;28;20489;-68
2020/12/31 12:21:37;;;;;;;11.73;7.35;;;18.40;41.30;;;;;;5081281;28;20478;-68
2020/12/31 12:24:05;;;;;;;9.70;6.90;;;18.90;39.60;;;;;;5091895;28;20795;-68
2020/12/31 12:26:36;;;;;;;8.68;6.47;;;18.70;39.00;;;;;;5091198;28;20887;-68
2020/12/31 12:29:04;;;;;;;8.93;6.68;;;18.80;39.60;;;;;;5091998;28;20475;-68
2020/12/31 12:31:35;;;;;;;9.37;6.80;;;18.40;40.00;;;;;;5074538;28;20883;-68
2020/12/31 12:34:02;;;;;;;9.23;6.88;;;18.60;39.90;;;;;;5071996;28;20500;-68
2020/12/31 12:36:29;;;;;;;9.68;6.70;;;18.70;39.80;;;;;;5071422;28;20856;-68
2020/12/31 12:38:57;;;;;;;9.30;7.03;;;18.70;39.20;;;;;;5071410;28;20442;-68
2020/12/31 12:41:24;;;;;;;9.63;6.72;;;18.70;39.10;;;;;;5071688;28;20458;-68
2020/12/31 12:43:50;;;;;;;9.27;7.10;;;18.50;40.40;;;;;;5071350;28;20447;-68
2020/12/31 12:46:18;;;;;;;10.57;6.90;;;18.60;41.10;;;;;;5071127;28;20864;-68
2020/12/31 12:48:47;;;;;;;9.30;6.83;;;18.70;40.00;;;;;;5071634;28;20407;-68
2020/12/31 12:51:14;;;;;;;8.85;6.53;;;18.60;40.40;;;;;;5071089;28;20412;-68
2020/12/31 12:53:41;;;;;;;8.65;6.80;;;18.80;39.90;;;;;;5071477;28;20395;-68
2020/12/31 12:56:10;;;;;;;11.68;8.20;;;18.80;39.40;;;;;;5070200;28;20444;-68